Terminal Aerodrome Forecast
Issued by NWS

Home | Current Version | Previous Version | Text Only | Print | Product List | Glossary On
Versions: 1 2 3 4 5 6 7 8 9 10 11 12 13 14 15 16 17 18 19 20 21 22 23 24 25
000
FTUS42 KGSP 050004 RRA
TAFAND
TAF
KAND 050004Z 0500/0524 22009KT P6SM BKN060
     FM050500 21010KT P6SM BKN015
     FM050700 21009KT 5SM BR BKN008
     FM051200 23010KT 3SM -RA BR OVC008
     FM051500 25005KT 4SM -RA OVC015
     FM052200 30007KT P6SM OVC015=

USA.gov is the U.S. government's official web portal to all federal, state and local government web resources and services.